Time;durP1;ratioP1;P1;durP2;ratioP2;P2;SDS_P1;SDS_P2;PMS_P1;PMS_P2;Temp;Humidity;BMP_temperature;BMP_pressure;BME280_temperature;BME280_humidity;BME280_pressure;Samples;Min_cycle;Max_cycle;Signal;HPM_P1;HPM_P2
2023/09/29 00:02:17;;;;;;;15.60;9.98;;;15.70;99.90;;;;;;5040689;28;20029;-57
2023/09/29 00:04:42;;;;;;;13.48;10.10;;;15.70;99.90;;;;;;5039810;28;20025;-57
2023/09/29 00:07:08;;;;;;;13.45;9.05;;;15.70;99.90;;;;;;5039233;28;20040;-57
2023/09/29 00:09:34;;;;;;;14.75;10.10;;;15.70;99.90;;;;;;5041718;28;20028;-57
2023/09/29 00:11:59;;;;;;;15.18;9.90;;;15.80;99.90;;;;;;5046429;28;20020;-57
2023/09/29 00:14:26;;;;;;;15.23;10.70;;;15.70;99.90;;;;;;5041163;28;20505;-58
2023/09/29 00:16:51;;;;;;;15.10;9.98;;;15.70;99.90;;;;;;5034859;28;20037;-58
2023/09/29 00:19:17;;;;;;;13.20;10.45;;;15.70;99.90;;;;;;5046276;28;20093;-59
2023/09/29 00:21:43;;;;;;;10.65;9.55;;;15.70;99.90;;;;;;5037571;28;20029;-58
2023/09/29 00:24:08;;;;;;;19.00;10.77;;;15.70;99.90;;;;;;5037648;28;20025;-58
2023/09/29 00:26:33;;;;;;;19.75;11.43;;;15.70;99.90;;;;;;5046129;28;20212;-58
2023/09/29 00:28:59;;;;;;;12.50;9.80;;;15.70;99.90;;;;;;5043683;28;20502;-57
2023/09/29 00:31:25;;;;;;;14.50;9.65;;;15.70;99.90;;;;;;5044965;28;20042;-58
2023/09/29 00:33:50;;;;;;;13.02;8.90;;;15.70;99.90;;;;;;5048408;28;20040;-58
2023/09/29 00:36:16;;;;;;;10.80;8.68;;;15.60;99.90;;;;;;5045991;28;20037;-58
2023/09/29 00:38:41;;;;;;;12.20;9.35;;;15.60;99.90;;;;;;5046866;28;20033;-57
2023/09/29 00:41:08;;;;;;;9.15;7.93;;;15.60;99.90;;;;;;5045012;28;20048;-57
2023/09/29 00:43:35;;;;;;;10.88;8.18;;;15.50;99.90;;;;;;5042182;28;20039;-56
2023/09/29 00:46:03;;;;;;;11.73;8.73;;;15.40;99.90;;;;;;5042721;28;20022;-56
2023/09/29 00:48:32;;;;;;;10.52;9.18;;;15.40;99.90;;;;;;5050010;28;20094;-56
2023/09/29 00:50:59;;;;;;;10.15;9.15;;;15.40;99.90;;;;;;5042765;28;20033;-56
2023/09/29 00:53:25;;;;;;;9.85;8.70;;;15.30;99.90;;;;;;5039680;28;20371;-56
2023/09/29 00:55:51;;;;;;;12.85;9.20;;;15.30;99.90;;;;;;5037709;28;20064;-56
2023/09/29 00:58:17;;;;;;;11.43;8.98;;;15.30;99.90;;;;;;5043644;28;20027;-56
2023/09/29 01:00:45;;;;;;;11.57;9.50;;;15.30;99.90;;;;;;5045846;28;20045;-57
2023/09/29 01:03:14;;;;;;;13.00;9.52;;;15.30;99.90;;;;;;5049137;28;20028;-57
2023/09/29 01:05:47;;;;;;;10.98;9.13;;;15.30;99.90;;;;;;5040340;28;20048;-57
2023/09/29 01:08:17;;;;;;;10.65;9.40;;;15.40;99.90;;;;;;5038476;28;20022;-56
2023/09/29 01:10:44;;;;;;;12.98;9.05;;;15.30;99.90;;;;;;5041074;28;20059;-56
2023/09/29 01:13:10;;;;;;;14.77;10.98;;;15.40;99.90;;;;;;5036131;28;20240;-57
2023/09/29 01:15:36;;;;;;;15.77;10.45;;;15.30;99.90;;;;;;5037818;28;20117;-56
2023/09/29 01:18:02;;;;;;;9.68;8.57;;;15.30;99.90;;;;;;5037569;28;20020;-55
2023/09/29 01:20:31;;;;;;;10.35;9.23;;;15.30;99.90;;;;;;5043048;28;20074;-56
2023/09/29 01:23:00;;;;;;;11.20;8.18;;;15.30;99.90;;;;;;5045429;28;20082;-56
2023/09/29 01:25:26;;;;;;;12.20;9.40;;;15.30;99.90;;;;;;5045196;28;20039;-57
2023/09/29 01:27:52;;;;;;;10.70;8.77;;;15.30;99.90;;;;;;5038926;28;20036;-57
2023/09/29 01:30:18;;;;;;;12.70;9.02;;;15.30;99.90;;;;;;5045630;28;20021;-57
2023/09/29 01:32:50;;;;;;;12.63;10.60;;;15.30;99.90;;;;;;5044052;28;20565;-57
2023/09/29 01:35:21;;;;;;;19.40;12.55;;;15.30;99.90;;;;;;5042993;28;20501;-56
2023/09/29 01:37:49;;;;;;;22.15;14.95;;;15.40;99.90;;;;;;5038693;28;20028;-57
2023/09/29 01:40:15;;;;;;;17.02;13.35;;;15.50;99.90;;;;;;5041836;28;20128;-57
2023/09/29 01:42:43;;;;;;;18.13;12.75;;;15.60;99.90;;;;;;5045688;28;20390;-57
2023/09/29 01:45:10;;;;;;;18.02;14.35;;;15.50;99.90;;;;;;5040120;28;20053;-57
2023/09/29 01:47:37;;;;;;;16.40;12.43;;;15.50;99.90;;;;;;5041317;28;20413;-57
2023/09/29 01:50:03;;;;;;;21.20;14.40;;;15.50;99.90;;;;;;5039972;28;20419;-57
2023/09/29 01:52:28;;;;;;;21.27;13.93;;;15.50;99.90;;;;;;5033897;28;20154;-57
2023/09/29 01:54:57;;;;;;;17.50;13.90;;;15.50;99.90;;;;;;5032791;28;20033;-57
2023/09/29 01:57:23;;;;;;;25.50;20.65;;;15.60;99.90;;;;;;5039778;28;20029;-58
2023/09/29 01:59:49;;;;;;;23.40;16.90;;;15.70;99.90;;;;;;5041438;28;20035;-59
2023/09/29 02:02:15;;;;;;;21.67;17.65;;;15.70;99.90;;;;;;5041246;28;20029;-57
2023/09/29 02:04:40;;;;;;;22.27;15.52;;;15.70;99.90;;;;;;5040047;28;20037;-57
2023/09/29 02:07:06;;;;;;;20.42;13.95;;;15.70;99.90;;;;;;5041943;28;20017;-57
2023/09/29 02:09:31;;;;;;;26.20;18.38;;;15.70;99.90;;;;;;5039877;28;20421;-58
2023/09/29 02:11:57;;;;;;;25.30;16.20;;;15.70;99.90;;;;;;5044322;28;20393;-57
2023/09/29 02:14:23;;;;;;;25.35;17.58;;;15.70;99.90;;;;;;5039521;28;20057;-56
2023/09/29 02:16:49;;;;;;;28.25;18.63;;;15.80;99.90;;;;;;5038695;28;20561;-56
2023/09/29 02:19:16;;;;;;;24.25;17.30;;;15.90;99.90;;;;;;5042603;28;20104;-57
2023/09/29 02:21:43;;;;;;;31.23;17.77;;;15.90;99.90;;;;;;5037255;28;20029;-55
2023/09/29 02:24:09;;;;;;;19.20;15.55;;;16.00;99.90;;;;;;5039842;28;20508;-56
2023/09/29 02:26:34;;;;;;;23.05;16.30;;;16.00;99.90;;;;;;5047898;28;20028;-55
2023/09/29 02:29:04;;;;;;;23.60;15.45;;;16.00;99.90;;;;;;5041169;28;20024;-56
2023/09/29 02:31:30;;;;;;;26.80;17.88;;;16.00;99.90;;;;;;5039443;28;20483;-56
2023/09/29 02:33:55;;;;;;;26.90;16.13;;;16.00;99.90;;;;;;5044965;28;20052;-56
2023/09/29 02:36:21;;;;;;;22.50;16.90;;;16.10;99.90;;;;;;5044420;28;20056;-56
2023/09/29 02:38:47;;;;;;;21.05;15.93;;;16.10;99.90;;;;;;5039215;28;20251;-55
2023/09/29 02:41:13;;;;;;;18.67;13.60;;;16.20;99.90;;;;;;5046138;28;20447;-57
2023/09/29 02:43:38;;;;;;;21.58;13.95;;;16.20;99.90;;;;;;5039149;28;20025;-57
2023/09/29 02:46:04;;;;;;;16.17;12.02;;;16.20;99.90;;;;;;5037914;28;20387;-55
2023/09/29 02:48:30;;;;;;;22.75;14.82;;;16.20;99.90;;;;;;5043721;28;20025;-55
2023/09/29 02:50:56;;;;;;;22.30;14.73;;;16.30;99.90;;;;;;5046804;28;20036;-56
2023/09/29 02:53:22;;;;;;;23.92;15.02;;;16.30;99.90;;;;;;5042727;28;20030;-57
2023/09/29 02:55:47;;;;;;;27.58;14.00;;;16.40;99.90;;;;;;5041719;28;20021;-57
2023/09/29 02:58:13;;;;;;;22.42;13.98;;;16.40;99.90;;;;;;5047952;28;20487;-57
2023/09/29 03:00:42;;;;;;;25.38;13.20;;;16.50;99.90;;;;;;5045569;28;20486;-57
2023/09/29 03:03:09;;;;;;;18.83;12.50;;;16.60;99.90;;;;;;5045608;28;20022;-56
2023/09/29 03:05:35;;;;;;;24.40;11.95;;;16.70;99.90;;;;;;5041927;28;20031;-57
2023/09/29 03:08:01;;;;;;;15.52;10.45;;;16.80;99.90;;;;;;5044885;28;20028;-56
2023/09/29 03:10:28;;;;;;;13.82;10.23;;;16.90;99.90;;;;;;5045711;28;20367;-57
2023/09/29 03:12:56;;;;;;;13.75;10.38;;;17.00;99.90;;;;;;5043636;28;20045;-57
2023/09/29 03:15:22;;;;;;;10.45;8.55;;;17.10;99.90;;;;;;5040339;28;20521;-57
2023/09/29 03:17:48;;;;;;;15.43;9.10;;;17.10;99.90;;;;;;5041474;28;20119;-57
2023/09/29 03:20:15;;;;;;;14.30;9.32;;;17.20;99.90;;;;;;5049458;28;20100;-57
2023/09/29 03:22:43;;;;;;;14.23;9.75;;;17.20;99.90;;;;;;5048598;28;20025;-57
2023/09/29 03:25:09;;;;;;;13.40;9.68;;;17.30;99.90;;;;;;5044785;28;20048;-57
2023/09/29 03:27:36;;;;;;;14.43;9.38;;;17.30;99.90;;;;;;5038517;28;20060;-57
2023/09/29 03:30:04;;;;;;;10.93;7.82;;;17.40;99.90;;;;;;5044252;28;20182;-57
2023/09/29 03:32:30;;;;;;;13.10;9.25;;;17.40;99.90;;;;;;5051827;28;20028;-57
2023/09/29 03:34:56;;;;;;;15.05;9.98;;;17.40;99.90;;;;;;5041845;28;20021;-57
2023/09/29 03:37:22;;;;;;;13.10;9.27;;;17.40;99.90;;;;;;5049463;28;20552;-57
2023/09/29 03:39:48;;;;;;;10.88;8.10;;;17.40;99.90;;;;;;5043715;28;20206;-56
2023/09/29 03:42:14;;;;;;;11.43;7.93;;;17.50;99.90;;;;;;5045956;28;20386;-57
2023/09/29 03:44:40;;;;;;;10.20;7.85;;;17.40;99.90;;;;;;5044761;28;20021;-57
2023/09/29 03:47:05;;;;;;;15.23;8.23;;;17.40;99.90;;;;;;5042781;28;20044;-57
2023/09/29 03:49:31;;;;;;;9.65;7.93;;;17.50;99.90;;;;;;5043751;28;20113;-57
2023/09/29 03:51:57;;;;;;;8.57;7.55;;;17.40;99.90;;;;;;5043828;28;20159;-57
2023/09/29 03:54:23;;;;;;;12.48;7.97;;;17.50;99.90;;;;;;5045374;28;20092;-57
2023/09/29 03:56:52;;;;;;;10.75;8.07;;;17.50;99.90;;;;;;5036407;28;20268;-57
2023/09/29 03:59:18;;;;;;;11.32;7.53;;;17.50;99.90;;;;;;5040285;28;20028;-57
2023/09/29 04:01:45;;;;;;;10.45;7.97;;;17.50;99.90;;;;;;5045073;28;20016;-57
2023/09/29 04:04:11;;;;;;;9.73;7.32;;;17.60;99.90;;;;;;5040846;28;20034;-57
2023/09/29 04:06:36;;;;;;;9.52;8.23;;;17.60;99.90;;;;;;5049003;28;20025;-57
2023/09/29 04:09:04;;;;;;;17.15;8.35;;;17.60;99.90;;;;;;5045853;28;20040;-57
2023/09/29 04:11:30;;;;;;;13.55;7.72;;;17.60;99.90;;;;;;5045310;28;20025;-56
2023/09/29 04:13:56;;;;;;;14.25;7.38;;;17.70;99.90;;;;;;5044019;28;20025;-57
2023/09/29 04:16:21;;;;;;;12.20;7.70;;;17.70;99.90;;;;;;5047182;28;20547;-57
2023/09/29 04:18:47;;;;;;;11.73;7.72;;;17.70;99.90;;;;;;5044899;28;20025;-57
2023/09/29 04:21:14;;;;;;;11.00;7.22;;;17.70;99.90;;;;;;5037759;28;20375;-57
2023/09/29 04:23:40;;;;;;;10.10;7.20;;;17.70;99.90;;;;;;5045153;28;20029;-57
2023/09/29 04:26:19;;;;;;;14.88;7.43;;;17.70;99.90;;;;;;5041861;28;20021;-58
2023/09/29 04:28:45;;;;;;;10.43;6.82;;;17.80;99.90;;;;;;5046408;28;20478;-57
2023/09/29 04:31:11;;;;;;;18.05;7.97;;;17.80;99.90;;;;;;5042527;28;20033;-56
2023/09/29 04:33:37;;;;;;;9.80;7.53;;;17.80;99.90;;;;;;5048204;28;20071;-56
2023/09/29 04:36:03;;;;;;;9.82;7.35;;;17.80;99.90;;;;;;5043667;28;20453;-56
2023/09/29 04:38:29;;;;;;;9.07;7.38;;;17.80;99.90;;;;;;5045475;28;20060;-56
2023/09/29 04:40:54;;;;;;;10.02;6.78;;;17.90;99.90;;;;;;5038207;28;20041;-56
2023/09/29 04:43:20;;;;;;;11.43;7.63;;;17.90;99.90;;;;;;5043626;28;20025;-56
2023/09/29 04:45:45;;;;;;;11.27;7.90;;;17.90;99.90;;;;;;5045664;28;20031;-56
2023/09/29 04:48:11;;;;;;;8.95;7.18;;;17.90;99.90;;;;;;5038161;28;20745;-56
2023/09/29 04:50:36;;;;;;;14.73;8.02;;;17.90;99.90;;;;;;5043488;28;20032;-56
2023/09/29 04:53:02;;;;;;;12.00;8.13;;;18.00;99.90;;;;;;5043680;28;20032;-57
2023/09/29 04:55:28;;;;;;;8.05;6.82;;;18.00;99.90;;;;;;5046010;28;20112;-56
2023/09/29 04:57:54;;;;;;;15.80;7.60;;;18.00;99.90;;;;;;5044317;28;20049;-55
2023/09/29 05:00:21;;;;;;;12.35;8.18;;;17.90;99.90;;;;;;5046764;28;20056;-55
2023/09/29 05:02:46;;;;;;;12.80;8.35;;;18.00;99.90;;;;;;5042823;28;20554;-56
2023/09/29 05:05:12;;;;;;;11.27;7.72;;;18.00;99.90;;;;;;5045564;28;20502;-56
2023/09/29 05:07:38;;;;;;;10.23;6.88;;;18.00;99.90;;;;;;5048487;28;20378;-55
2023/09/29 05:10:04;;;;;;;12.65;7.25;;;18.00;99.90;;;;;;5044523;28;20029;-56
2023/09/29 05:12:30;;;;;;;10.13;7.45;;;18.00;99.90;;;;;;5042212;28;20085;-57
2023/09/29 05:14:56;;;;;;;12.48;7.97;;;18.00;99.90;;;;;;5048001;28;20099;-56
2023/09/29 05:17:21;;;;;;;10.45;7.55;;;18.00;99.90;;;;;;5045631;28;20021;-56
2023/09/29 05:19:47;;;;;;;9.00;7.10;;;18.00;99.90;;;;;;5040722;28;20043;-56
2023/09/29 05:22:12;;;;;;;14.02;8.43;;;18.00;99.90;;;;;;5043457;28;20318;-56
2023/09/29 05:24:38;;;;;;;11.18;7.78;;;18.00;99.90;;;;;;5044343;28;20041;-56
2023/09/29 05:27:04;;;;;;;9.90;6.45;;;18.00;99.90;;;;;;5044127;28;20025;-56
2023/09/29 05:29:29;;;;;;;10.05;6.95;;;18.00;99.90;;;;;;5047338;28;20029;-55
2023/09/29 05:31:55;;;;;;;11.45;8.10;;;18.10;99.90;;;;;;5045836;28;20033;-57
2023/09/29 05:34:20;;;;;;;10.85;7.20;;;18.10;99.90;;;;;;5040082;28;20474;-56
2023/09/29 05:36:46;;;;;;;10.45;7.63;;;18.10;99.90;;;;;;5041314;28;20029;-57
2023/09/29 05:39:12;;;;;;;11.38;7.07;;;18.10;99.90;;;;;;5045533;28;20025;-57
2023/09/29 05:41:38;;;;;;;11.40;6.32;;;18.10;99.90;;;;;;5040510;28;20079;-58
2023/09/29 05:44:04;;;;;;;10.15;6.85;;;18.10;99.90;;;;;;5047198;28;20537;-57
2023/09/29 05:46:29;;;;;;;12.50;7.28;;;18.10;99.90;;;;;;5045722;28;20056;-57
2023/09/29 05:48:55;;;;;;;11.95;7.60;;;18.20;99.90;;;;;;5044249;28;20028;-57
2023/09/29 05:51:21;;;;;;;9.57;7.20;;;18.20;99.90;;;;;;5040675;28;20048;-57
2023/09/29 05:53:46;;;;;;;15.40;7.18;;;18.20;99.90;;;;;;5041151;28;20056;-57
2023/09/29 05:56:13;;;;;;;11.60;7.22;;;18.20;99.90;;;;;;5043098;28;20053;-57
2023/09/29 05:58:38;;;;;;;10.80;7.10;;;18.20;99.90;;;;;;5043162;28;20040;-57
2023/09/29 06:01:12;;;;;;;12.05;7.45;;;18.20;99.90;;;;;;5043872;28;20029;-57
2023/09/29 06:03:38;;;;;;;15.57;8.05;;;18.20;99.90;;;;;;5034357;28;20087;-57
2023/09/29 06:06:04;;;;;;;15.70;6.85;;;18.20;99.90;;;;;;5051223;28;20020;-57
2023/09/29 06:08:30;;;;;;;13.20;6.85;;;18.20;99.90;;;;;;5045098;28;20029;-57
2023/09/29 06:10:57;;;;;;;12.50;7.13;;;18.30;99.90;;;;;;5045695;28;20028;-58
2023/09/29 06:13:23;;;;;;;11.82;7.05;;;18.30;99.90;;;;;;5048278;28;20024;-58
2023/09/29 06:15:48;;;;;;;12.73;6.95;;;18.30;99.90;;;;;;5042279;28;20025;-57
2023/09/29 06:18:15;;;;;;;10.52;6.97;;;18.30;99.90;;;;;;5044320;28;20018;-57
2023/09/29 06:20:40;;;;;;;10.05;6.63;;;18.30;99.90;;;;;;5049014;28;20096;-57
2023/09/29 06:23:06;;;;;;;6.78;5.50;;;18.30;99.90;;;;;;5046825;28;20144;-57
2023/09/29 06:25:33;;;;;;;13.73;6.53;;;18.40;99.90;;;;;;5040301;28;20025;-57
2023/09/29 06:27:58;;;;;;;11.52;5.95;;;18.40;99.90;;;;;;5046088;28;20510;-57
2023/09/29 06:30:24;;;;;;;9.38;5.70;;;18.40;99.90;;;;;;5044411;28;20058;-57
2023/09/29 06:32:50;;;;;;;6.80;5.72;;;18.40;99.90;;;;;;5042525;28;20104;-56
2023/09/29 06:35:16;;;;;;;9.20;5.88;;;18.40;99.90;;;;;;5042139;28;20167;-57
2023/09/29 06:37:42;;;;;;;10.10;6.10;;;18.50;99.90;;;;;;5044034;28;20033;-56
2023/09/29 06:40:11;;;;;;;10.32;6.07;;;18.50;99.90;;;;;;5044459;28;20044;-57
2023/09/29 06:42:38;;;;;;;10.02;5.65;;;18.60;99.90;;;;;;5039562;28;20551;-56
2023/09/29 06:45:07;;;;;;;12.05;6.10;;;18.60;99.90;;;;;;5044745;28;20025;-56
2023/09/29 06:47:34;;;;;;;9.10;5.47;;;18.60;99.90;;;;;;5045925;28;20035;-56
2023/09/29 06:50:00;;;;;;;11.85;5.45;;;18.60;99.90;;;;;;5046025;28;20018;-56
2023/09/29 06:52:25;;;;;;;7.70;5.47;;;18.60;99.90;;;;;;5043251;28;20033;-56
2023/09/29 06:54:51;;;;;;;8.57;6.03;;;18.60;99.90;;;;;;5043994;28;20251;-56
2023/09/29 06:57:16;;;;;;;8.38;6.25;;;18.60;99.90;;;;;;5036597;28;20025;-56
2023/09/29 06:59:42;;;;;;;6.28;5.07;;;18.60;99.90;;;;;;5046436;28;20079;-56
2023/09/29 07:02:07;;;;;;;8.05;5.22;;;18.70;99.90;;;;;;5045311;28;20550;-56
2023/09/29 07:04:33;;;;;;;6.45;4.97;;;18.70;99.90;;;;;;5044221;28;20028;-57
2023/09/29 07:06:59;;;;;;;7.43;5.80;;;18.70;99.90;;;;;;5041024;28;20107;-57
2023/09/29 07:09:25;;;;;;;8.60;5.57;;;18.70;99.90;;;;;;5039428;28;20401;-57
2023/09/29 07:11:51;;;;;;;8.45;5.57;;;18.70;99.90;;;;;;5044761;28;20075;-56
2023/09/29 07:14:16;;;;;;;10.80;5.57;;;18.80;99.90;;;;;;5045839;28;20032;-57
2023/09/29 07:16:43;;;;;;;8.95;5.70;;;18.80;99.90;;;;;;5040095;28;20123;-58
2023/09/29 07:19:12;;;;;;;15.98;6.32;;;18.80;99.90;;;;;;5038017;28;20108;-57
2023/09/29 07:21:38;;;;;;;8.95;5.90;;;18.80;99.90;;;;;;5039251;28;20029;-60
2023/09/29 07:24:04;;;;;;;5.97;5.35;;;18.80;99.90;;;;;;5042525;28;20063;-57
2023/09/29 07:26:30;;;;;;;9.82;5.93;;;18.90;99.90;;;;;;5044054;28;20401;-57
2023/09/29 07:29:00;;;;;;;7.53;5.03;;;18.90;99.90;;;;;;5045216;28;20108;-56
2023/09/29 07:31:33;;;;;;;;;;;18.90;99.90;;;;;;5043810;28;20044;-57
2023/09/29 07:33:58;;;;;;;8.60;5.18;;;19.00;99.90;;;;;;5041409;28;19911;-56
2023/09/29 07:36:24;;;;;;;7.60;4.93;;;19.00;99.90;;;;;;5045346;28;20033;-57
2023/09/29 07:38:49;;;;;;;8.35;5.57;;;19.00;99.90;;;;;;5046356;28;20364;-57
2023/09/29 07:41:15;;;;;;;11.35;5.63;;;19.00;99.90;;;;;;5047120;28;20029;-56
2023/09/29 07:43:41;;;;;;;10.35;6.07;;;19.10;99.90;;;;;;5051448;28;20029;-56
2023/09/29 07:46:06;;;;;;;6.82;5.28;;;19.10;99.90;;;;;;5045494;28;20044;-57
2023/09/29 07:48:32;;;;;;;12.63;5.60;;;19.10;99.90;;;;;;5056010;28;20079;-57
2023/09/29 07:50:57;;;;;;;9.77;5.85;;;19.10;99.90;;;;;;5041120;28;20123;-57
2023/09/29 07:53:23;;;;;;;8.20;6.10;;;19.20;99.90;;;;;;5048906;28;20445;-57
2023/09/29 07:55:48;;;;;;;9.52;5.65;;;19.20;99.90;;;;;;5046528;28;20021;-57
2023/09/29 07:58:14;;;;;;;11.68;5.97;;;19.20;99.90;;;;;;5048418;28;20028;-57
2023/09/29 08:00:39;;;;;;;9.55;5.85;;;19.20;99.90;;;;;;5050874;28;20021;-57
2023/09/29 08:03:05;;;;;;;13.88;6.53;;;19.20;99.90;;;;;;5048493;28;20410;-57
2023/09/29 08:05:31;;;;;;;12.60;5.50;;;19.20;99.90;;;;;;5049703;28;20488;-56
2023/09/29 08:07:56;;;;;;;10.60;5.85;;;19.20;99.90;;;;;;5048747;28;20021;-57
2023/09/29 08:10:22;;;;;;;7.85;5.05;;;19.30;99.90;;;;;;5042914;28;20013;-58
2023/09/29 08:12:47;;;;;;;11.93;6.30;;;19.30;99.90;;;;;;5048737;28;20021;-57
2023/09/29 08:15:13;;;;;;;9.75;6.95;;;19.30;99.90;;;;;;5050128;28;20017;-57
2023/09/29 08:17:39;;;;;;;10.13;6.00;;;19.30;99.90;;;;;;5042672;28;20111;-57
2023/09/29 08:20:06;;;;;;;6.85;5.35;;;19.30;99.90;;;;;;5048938;28;20020;-57
2023/09/29 08:22:31;;;;;;;12.02;5.63;;;19.30;99.90;;;;;;5046702;28;20059;-57
2023/09/29 08:24:57;;;;;;;6.18;5.28;;;19.40;99.90;;;;;;5051135;28;20482;-57
2023/09/29 08:27:22;;;;;;;12.93;5.50;;;19.40;99.90;;;;;;5047034;28;20115;-57
2023/09/29 08:29:48;;;;;;;7.53;5.05;;;19.40;99.90;;;;;;5048471;28;20043;-57
2023/09/29 08:32:13;;;;;;;8.25;4.90;;;19.40;99.90;;;;;;5049526;28;20021;-58
2023/09/29 08:34:39;;;;;;;9.82;6.10;;;19.40;99.90;;;;;;5049391;28;20037;-58
2023/09/29 08:37:04;;;;;;;10.23;5.03;;;19.40;99.90;;;;;;5050476;28;20437;-58
2023/09/29 08:39:30;;;;;;;8.27;5.40;;;19.40;99.90;;;;;;5040890;28;20029;-58
2023/09/29 08:42:05;;;;;;;7.18;4.85;;;19.40;99.90;;;;;;5043309;28;20026;-59
2023/09/29 08:44:32;;;;;;;6.70;5.32;;;19.50;99.90;;;;;;5048915;28;20021;-58
2023/09/29 08:47:01;;;;;;;14.20;5.85;;;19.60;99.90;;;;;;5042724;28;20449;-58
2023/09/29 08:49:29;;;;;;;7.47;5.18;;;19.60;99.90;;;;;;5043783;28;20428;-58
2023/09/29 08:51:55;;;;;;;7.15;5.38;;;19.60;99.90;;;;;;5050085;28;20495;-58
2023/09/29 08:54:23;;;;;;;8.27;5.25;;;19.70;99.90;;;;;;5040226;28;20051;-59
2023/09/29 08:56:49;;;;;;;6.25;4.82;;;19.80;99.90;;;;;;5045942;28;20074;-58
2023/09/29 08:59:16;;;;;;;10.15;5.65;;;19.80;99.90;;;;;;5046144;28;20063;-58
2023/09/29 09:01:41;;;;;;;6.40;4.88;;;19.90;99.90;;;;;;5048808;28;20025;-58
2023/09/29 09:04:07;;;;;;;9.70;5.50;;;20.00;99.90;;;;;;5048828;28;20031;-59
2023/09/29 09:06:32;;;;;;;7.53;5.53;;;19.90;99.90;;;;;;5041934;28;20483;-58
2023/09/29 09:08:58;;;;;;;10.05;5.70;;;19.90;99.90;;;;;;5042061;28;20017;-58
2023/09/29 09:11:24;;;;;;;6.70;5.45;;;19.90;99.90;;;;;;5043531;28;20030;-58
2023/09/29 09:14:03;;;;;;;7.25;5.63;;;19.80;99.90;;;;;;5043041;28;20043;-59
2023/09/29 09:16:31;;;;;;;7.95;5.47;;;19.80;99.90;;;;;;5038449;28;20029;-59
2023/09/29 09:19:11;;;;;;;12.07;5.40;;;19.80;99.90;;;;;;5029748;28;20039;-58
2023/09/29 09:21:36;;;;;;;7.03;5.30;;;19.80;99.90;;;;;;5034495;28;20050;-58
2023/09/29 09:24:02;;;;;;;6.13;5.20;;;19.80;99.90;;;;;;5028427;28;20666;-59
2023/09/29 09:26:28;;;;;;;9.10;5.38;;;19.90;99.90;;;;;;5040865;28;20044;-58
2023/09/29 09:28:54;;;;;;;9.23;5.57;;;19.90;99.90;;;;;;5036107;28;20017;-58
2023/09/29 09:31:19;;;;;;;11.43;6.15;;;19.90;99.90;;;;;;5041438;28;20021;-57
2023/09/29 09:33:53;;;;;;;9.25;5.50;;;19.90;99.90;;;;;;5033654;28;20506;-58
2023/09/29 09:36:19;;;;;;;9.85;5.53;;;19.90;99.90;;;;;;5040804;28;20053;-58
2023/09/29 09:38:47;;;;;;;8.48;6.03;;;20.00;99.90;;;;;;5041174;28;20063;-56
2023/09/29 09:41:15;;;;;;;9.57;6.20;;;19.90;99.90;;;;;;5042728;28;20033;-57
2023/09/29 09:43:43;;;;;;;9.52;5.78;;;19.90;99.90;;;;;;5033619;28;20025;-57
2023/09/29 09:46:12;;;;;;;9.25;5.10;;;19.90;99.90;;;;;;5036732;28;20071;-57
2023/09/29 09:48:55;;;;;;;9.00;5.60;;;19.90;99.90;;;;;;5047143;28;20429;-57
2023/09/29 09:51:33;;;;;;;13.35;6.38;;;19.90;99.90;;;;;;5038127;28;20063;-57
2023/09/29 09:54:03;;;;;;;12.25;7.05;;;20.00;99.90;;;;;;5032910;28;20032;-57
2023/09/29 09:57:00;;;;;;;14.15;5.88;;;20.00;99.90;;;;;;5035621;28;20029;-58
2023/09/29 09:59:27;;;;;;;10.13;6.65;;;20.00;99.90;;;;;;5038046;28;20037;-59
2023/09/29 10:01:55;;;;;;;10.23;6.45;;;20.10;99.90;;;;;;5033244;28;20110;-58
2023/09/29 10:04:24;;;;;;;7.75;5.50;;;20.20;99.90;;;;;;5038463;28;20033;-57
2023/09/29 10:06:50;;;;;;;8.45;5.65;;;20.30;99.90;;;;;;5041562;28;20495;-57
2023/09/29 10:09:16;;;;;;;7.55;5.30;;;20.30;99.90;;;;;;5037410;28;20100;-57
2023/09/29 10:11:42;;;;;;;7.43;5.85;;;20.40;99.90;;;;;;5037149;28;20044;-56
2023/09/29 10:14:09;;;;;;;10.13;5.68;;;20.50;99.90;;;;;;5046267;28;20158;-57
2023/09/29 10:16:35;;;;;;;6.05;4.95;;;20.50;99.90;;;;;;5042357;28;20045;-57
2023/09/29 10:19:05;;;;;;;5.65;4.95;;;20.60;99.90;;;;;;5035580;28;20104;-57
2023/09/29 10:21:42;;;;;;;5.40;4.75;;;20.70;99.90;;;;;;5039410;28;20478;-56
2023/09/29 10:24:11;;;;;;;9.35;5.13;;;20.90;99.90;;;;;;5031965;28;20025;-58
2023/09/29 10:26:49;;;;;;;15.02;5.55;;;21.00;99.90;;;;;;5039778;28;20371;-57
2023/09/29 10:29:19;;;;;;;8.43;5.75;;;21.20;99.90;;;;;;5035263;28;20027;-57
2023/09/29 10:31:45;;;;;;;10.00;5.43;;;21.30;99.90;;;;;;5036144;28;20018;-57
2023/09/29 10:34:20;;;;;;;7.78;5.68;;;21.40;99.90;;;;;;5033021;28;20091;-57
2023/09/29 10:36:54;;;;;;;6.72;5.03;;;21.50;99.90;;;;;;5031135;28;20021;-56
2023/09/29 10:39:27;;;;;;;8.88;5.03;;;21.60;99.90;;;;;;5037039;28;20033;-57
2023/09/29 10:42:15;;;;;;;7.65;5.43;;;21.70;99.90;;;;;;5033324;28;20025;-57
2023/09/29 10:44:54;;;;;;;7.28;4.70;;;21.80;99.90;;;;;;5046592;28;20111;-57
2023/09/29 10:47:33;;;;;;;8.45;5.18;;;21.90;99.90;;;;;;5040013;28;20104;-57
2023/09/29 10:50:07;;;;;;;8.40;5.18;;;22.00;99.90;;;;;;5037062;28;20430;-57
2023/09/29 10:52:33;;;;;;;8.43;4.88;;;22.20;99.90;;;;;;5039050;28;20100;-57
2023/09/29 10:54:59;;;;;;;6.82;4.43;;;22.20;99.90;;;;;;5034958;28;20033;-57
2023/09/29 10:57:30;;;;;;;9.43;4.43;;;22.20;99.90;;;;;;5039217;28;20060;-58
2023/09/29 11:00:01;;;;;;;5.40;4.45;;;22.30;99.90;;;;;;5030913;28;20025;-57
2023/09/29 11:02:32;;;;;;;8.68;4.90;;;22.30;99.90;;;;;;5030105;28;20034;-58
2023/09/29 11:05:02;;;;;;;8.85;4.60;;;22.40;99.90;;;;;;5037788;28;20030;-57
2023/09/29 11:07:29;;;;;;;6.25;3.95;;;22.60;99.90;;;;;;5032221;28;20022;-57
2023/09/29 11:09:59;;;;;;;5.40;4.40;;;22.90;99.90;;;;;;5030284;28;20399;-57
2023/09/29 11:12:27;;;;;;;8.17;4.53;;;23.10;99.90;;;;;;5047231;28;20016;-57
2023/09/29 11:15:03;;;;;;;7.80;4.47;;;23.30;99.90;;;;;;5046207;28;20373;-58
2023/09/29 11:17:29;;;;;;;6.07;4.00;;;23.50;99.90;;;;;;5037229;28;20426;-58
2023/09/29 11:19:54;;;;;;;10.95;4.20;;;23.50;99.90;;;;;;5047823;28;20148;-57
2023/09/29 11:22:20;;;;;;;6.82;4.22;;;24.10;99.90;;;;;;5035962;28;20021;-57
2023/09/29 11:24:50;;;;;;;5.32;4.15;;;24.30;99.90;;;;;;5040184;28;20029;-57
2023/09/29 11:27:19;;;;;;;6.25;4.20;;;24.40;99.90;;;;;;5051262;28;20036;-57
2023/09/29 11:29:45;;;;;;;6.63;4.63;;;24.50;99.90;;;;;;5037410;28;20052;-58
2023/09/29 11:32:11;;;;;;;8.70;4.68;;;24.40;99.90;;;;;;5040461;28;20102;-58
2023/09/29 11:34:37;;;;;;;5.60;4.38;;;24.40;99.90;;;;;;5043771;28;20104;-57
2023/09/29 11:37:04;;;;;;;10.57;4.00;;;24.30;99.90;;;;;;5045156;28;20115;-57
2023/09/29 11:39:30;;;;;;;6.68;4.05;;;24.40;99.90;;;;;;5044021;28;20348;-57
2023/09/29 11:41:57;;;;;;;6.55;4.70;;;24.50;99.90;;;;;;5034808;28;20033;-58
2023/09/29 11:44:23;;;;;;;7.03;3.92;;;24.50;99.90;;;;;;5039305;28;20029;-57
2023/09/29 11:46:49;;;;;;;6.30;4.40;;;24.70;99.90;;;;;;5042871;28;20436;-58
2023/09/29 11:49:14;;;;;;;5.35;3.65;;;25.60;99.90;;;;;;5038321;28;20266;-57
2023/09/29 11:51:40;;;;;;;4.15;3.05;;;27.40;99.90;;;;;;5044863;28;20029;-58
2023/09/29 11:54:05;;;;;;;6.68;4.00;;;28.80;98.70;;;;;;5045348;28;20025;-59
2023/09/29 11:56:31;;;;;;;9.07;4.50;;;30.00;93.80;;;;;;5044394;28;20309;-58
2023/09/29 11:58:57;;;;;;;7.65;3.47;;;29.80;92.90;;;;;;5040298;28;20025;-59
2023/09/29 12:01:25;;;;;;;5.53;3.78;;;30.70;91.80;;;;;;5040383;28;20100;-58
2023/09/29 12:03:51;;;;;;;3.78;3.15;;;31.00;91.70;;;;;;5037466;28;20021;-58
2023/09/29 12:06:17;;;;;;;6.47;3.05;;;31.40;90.70;;;;;;5040660;28;20509;-58
2023/09/29 12:08:42;;;;;;;7.00;3.05;;;32.40;90.00;;;;;;5040306;28;20029;-58
2023/09/29 12:11:08;;;;;;;4.95;3.30;;;32.60;86.30;;;;;;5041037;28;20053;-59
2023/09/29 12:13:36;;;;;;;7.18;3.38;;;32.40;84.50;;;;;;5039107;28;20017;-58
2023/09/29 12:16:05;;;;;;;7.32;3.75;;;32.60;85.90;;;;;;5041993;28;20097;-59
2023/09/29 12:18:32;;;;;;;3.42;3.13;;;31.80;83.10;;;;;;5042129;28;20497;-58
2023/09/29 12:20:57;;;;;;;4.70;3.40;;;31.20;85.20;;;;;;5042331;28;20446;-58
2023/09/29 12:23:23;;;;;;;4.57;3.38;;;29.90;87.50;;;;;;5043759;28;20073;-58
2023/09/29 12:25:49;;;;;;;6.72;3.53;;;29.60;88.20;;;;;;5041051;28;20042;-58
2023/09/29 12:28:15;;;;;;;4.50;3.28;;;29.40;90.10;;;;;;5036645;28;20021;-58
2023/09/29 12:30:43;;;;;;;6.82;3.75;;;29.30;89.70;;;;;;5040911;28;20137;-58
2023/09/29 12:33:10;;;;;;;5.00;2.83;;;29.70;89.90;;;;;;5041137;28;20025;-58
2023/09/29 12:35:36;;;;;;;6.10;3.15;;;29.10;88.10;;;;;;5037421;28;20025;-58
2023/09/29 12:38:01;;;;;;;5.68;3.35;;;28.80;88.40;;;;;;5039495;28;20134;-58
2023/09/29 12:40:27;;;;;;;6.65;3.35;;;28.40;89.80;;;;;;5036907;28;20258;-61